createdAt,value
2019-01-17T00:02:19.209Z,18.03
2019-01-17T00:04:55.404Z,18.30
2019-01-17T00:07:42.067Z,18.00
2019-01-17T00:10:24.365Z,16.77
2019-01-17T00:12:54.578Z,16.93
2019-01-17T00:15:24.791Z,16.50
2019-01-17T00:18:03.827Z,15.33
2019-01-17T00:20:46.224Z,15.67
2019-01-17T00:23:32.476Z,15.70
2019-01-17T00:26:14.842Z,16.40
2019-01-17T00:28:57.304Z,14.90
2019-01-17T00:31:30.186Z,15.23
2019-01-17T00:34:00.306Z,15.57
2019-01-17T00:36:33.208Z,14.60
2019-01-17T00:39:06.109Z,14.13
2019-01-17T00:41:38.963Z,15.57
2019-01-17T00:44:09.184Z,15.37
2019-01-17T00:46:41.779Z,17.30
2019-01-17T00:49:11.934Z,16.30
2019-01-17T00:51:42.111Z,16.83
2019-01-17T00:54:12.213Z,16.47
2019-01-17T00:56:58.343Z,15.70
2019-01-17T00:59:34.462Z,16.67
2019-01-17T01:02:20.880Z,16.60
2019-01-17T01:05:07.248Z,15.70
2019-01-17T01:07:40.219Z,14.73
2019-01-17T01:10:15.367Z,14.83
2019-01-17T01:12:54.269Z,14.67
2019-01-17T01:15:36.847Z,14.37
2019-01-17T01:18:16.212Z,13.53
2019-01-17T01:20:46.317Z,12.73
2019-01-17T01:23:16.472Z,12.70
2019-01-17T01:25:55.679Z,12.37
2019-01-17T01:28:25.880Z,12.83
2019-01-17T01:31:05.181Z,12.33
2019-01-17T01:33:35.328Z,12.13
2019-01-17T01:36:14.347Z,13.03
2019-01-17T01:38:47.489Z,12.87
2019-01-17T01:41:33.682Z,13.00
2019-01-17T01:44:06.536Z,13.70
2019-01-17T01:46:39.752Z,13.33
2019-01-17T01:49:09.904Z,11.73
2019-01-17T01:51:40.073Z,12.17
2019-01-17T01:54:08.717Z,12.97
2019-01-17T01:56:37.200Z,12.20
2019-01-17T01:59:05.756Z,12.60
2019-01-17T02:01:34.278Z,11.73
2019-01-17T02:04:02.837Z,12.80
2019-01-17T02:06:31.398Z,12.03
2019-01-17T02:08:59.936Z,12.30
2019-01-17T02:11:28.544Z,11.23
2019-01-17T02:13:57.155Z,10.93
2019-01-17T02:16:26.237Z,10.13
2019-01-17T02:18:54.719Z,8.80
2019-01-17T02:21:25.812Z,7.47
2019-01-17T02:23:54.354Z,7.30
2019-01-17T02:26:23.071Z,6.80
2019-01-17T02:28:51.613Z,6.27
2019-01-17T02:31:20.081Z,7.37
2019-01-17T02:33:48.574Z,6.63
2019-01-17T02:36:17.114Z,7.60
2019-01-17T02:38:45.641Z,6.50
2019-01-17T02:41:14.136Z,5.93
2019-01-17T02:43:42.666Z,5.73
2019-01-17T02:46:11.149Z,5.27
2019-01-17T02:48:39.686Z,4.80
2019-01-17T02:51:08.281Z,3.97
2019-01-17T02:53:36.818Z,4.53
2019-01-17T02:56:05.401Z,4.03
2019-01-17T02:58:34.714Z,4.27
2019-01-17T03:01:03.453Z,4.00
2019-01-17T03:03:31.996Z,3.53
2019-01-17T03:06:00.615Z,4.10
2019-01-17T03:08:29.169Z,3.27
2019-01-17T03:10:58.617Z,3.00
2019-01-17T03:13:27.095Z,2.97
2019-01-17T03:15:55.673Z,2.70
2019-01-17T03:18:24.242Z,2.37
2019-01-17T03:20:52.742Z,2.20
2019-01-17T03:23:21.261Z,2.10
2019-01-17T03:25:49.752Z,1.80
2019-01-17T03:28:18.289Z,2.30
2019-01-17T03:30:46.832Z,2.47
2019-01-17T03:33:15.398Z,1.70
2019-01-17T03:35:43.946Z,2.60
2019-01-17T03:38:12.643Z,1.90
2019-01-17T03:40:41.209Z,1.87
2019-01-17T03:43:09.815Z,2.17
2019-01-17T03:45:38.313Z,2.47
2019-01-17T03:48:06.859Z,2.30
2019-01-17T03:50:35.413Z,2.37
2019-01-17T03:53:04.009Z,2.83
2019-01-17T03:55:35.602Z,2.93
2019-01-17T03:58:04.216Z,2.77
2019-01-17T04:00:32.763Z,3.20
2019-01-17T04:03:01.293Z,2.97
2019-01-17T04:05:29.788Z,2.50
2019-01-17T04:07:58.328Z,3.27
2019-01-17T04:10:26.902Z,3.23
2019-01-17T04:12:55.454Z,2.87
2019-01-17T04:15:23.988Z,2.70
2019-01-17T04:17:52.489Z,3.10
2019-01-17T04:20:21.097Z,3.00
2019-01-17T04:22:49.561Z,3.20
2019-01-17T04:25:18.145Z,3.40
2019-01-17T04:27:49.476Z,3.07
2019-01-17T04:30:18.382Z,3.17
2019-01-17T04:32:46.842Z,3.20
2019-01-17T04:35:15.581Z,3.10
2019-01-17T04:37:44.041Z,2.63
2019-01-17T04:40:13.656Z,3.30
2019-01-17T04:42:42.269Z,3.00
2019-01-17T04:45:12.692Z,3.33
2019-01-17T04:47:41.398Z,3.57
2019-01-17T04:50:12.479Z,3.30
2019-01-17T04:52:41.181Z,3.77
2019-01-17T04:55:11.267Z,3.50
2019-01-17T04:57:39.749Z,3.53
2019-01-17T05:00:17.023Z,3.70
2019-01-17T05:02:45.555Z,4.20
2019-01-17T05:05:14.219Z,3.87
2019-01-17T05:07:42.821Z,3.87
2019-01-17T05:10:13.949Z,3.97
2019-01-17T05:12:42.498Z,4.60
2019-01-17T05:15:11.708Z,4.63
2019-01-17T05:17:40.254Z,4.07
2019-01-17T05:20:13.992Z,4.43
2019-01-17T05:22:42.621Z,4.23
2019-01-17T05:25:12.810Z,4.27
2019-01-17T05:27:41.598Z,4.60
2019-01-17T05:30:15.568Z,5.17
2019-01-17T05:32:44.089Z,4.80
2019-01-17T05:35:12.786Z,4.73
2019-01-17T05:37:41.283Z,4.73
2019-01-17T05:40:18.067Z,5.00
2019-01-17T05:42:46.674Z,5.60
2019-01-17T05:45:15.636Z,5.03
2019-01-17T05:47:44.140Z,5.77
2019-01-17T05:50:15.032Z,5.07
2019-01-17T05:52:43.940Z,5.33
2019-01-17T05:55:19.485Z,4.87
2019-01-17T05:57:42.855Z,5.87
2019-01-17T06:00:14.719Z,5.07
2019-01-17T06:02:43.229Z,5.63
2019-01-17T06:05:13.670Z,6.13
2019-01-17T06:07:47.999Z,5.60
2019-01-17T06:10:16.565Z,5.87
2019-01-17T06:12:45.142Z,5.43
2019-01-17T06:15:16.152Z,6.03
2019-01-17T06:17:44.659Z,5.33
2019-01-17T06:20:15.622Z,5.47
2019-01-17T06:22:44.472Z,5.03
2019-01-17T06:25:13.583Z,5.03
2019-01-17T06:27:43.044Z,5.23
2019-01-17T06:30:15.864Z,4.83
2019-01-17T06:32:47.208Z,4.83
2019-01-17T06:35:15.826Z,4.70
2019-01-17T06:37:44.497Z,4.83
2019-01-17T06:40:19.657Z,5.17
2019-01-17T06:42:48.294Z,5.83
2019-01-17T06:45:16.921Z,5.27
2019-01-17T06:47:45.530Z,5.30
2019-01-17T06:50:14.177Z,5.30
2019-01-17T06:52:42.734Z,6.03
2019-01-17T06:55:11.359Z,5.40
2019-01-17T06:57:39.912Z,5.53
2019-01-17T07:00:14.538Z,5.53
2019-01-17T07:02:43.647Z,5.43
2019-01-17T07:05:14.014Z,5.03
2019-01-17T07:07:42.526Z,5.37
2019-01-17T07:10:13.989Z,5.37
2019-01-17T07:12:42.560Z,5.43
2019-01-17T07:15:11.165Z,4.90
2019-01-17T07:17:39.639Z,5.60
2019-01-17T07:20:11.433Z,4.70
2019-01-17T07:22:39.905Z,4.80
2019-01-17T07:25:09.957Z,4.63
2019-01-17T07:27:38.695Z,4.27
2019-01-17T07:30:19.099Z,5.10
2019-01-17T07:32:47.847Z,5.07
2019-01-17T07:35:16.396Z,5.30
2019-01-17T07:37:44.979Z,4.80
2019-01-17T07:40:14.372Z,5.70
2019-01-17T07:42:43.282Z,5.30
2019-01-17T07:45:14.978Z,5.43
2019-01-17T07:47:43.527Z,5.10
2019-01-17T07:50:12.271Z,5.00
2019-01-17T07:52:40.822Z,5.30
2019-01-17T07:55:09.943Z,5.83
2019-01-17T07:57:38.514Z,5.30
2019-01-17T08:00:21.384Z,5.17
2019-01-17T08:02:49.890Z,5.40
2019-01-17T08:05:18.605Z,6.50
2019-01-17T08:07:48.043Z,5.60
2019-01-17T08:10:18.866Z,5.93
2019-01-17T08:12:48.292Z,5.70
2019-01-17T08:15:17.524Z,5.37
2019-01-17T08:17:46.247Z,5.63
2019-01-17T08:20:17.712Z,5.87
2019-01-17T08:22:46.259Z,6.17
2019-01-17T08:25:14.753Z,6.20
2019-01-17T08:27:44.480Z,6.20
2019-01-17T08:30:21.494Z,6.13
2019-01-17T08:32:49.988Z,5.83
2019-01-17T08:35:19.039Z,5.70
2019-01-17T08:37:47.678Z,5.70
2019-01-17T08:40:24.880Z,5.87
2019-01-17T08:42:53.423Z,5.62
2019-01-17T08:45:21.995Z,6.10
2019-01-17T08:47:50.550Z,5.30
2019-01-17T08:50:19.846Z,5.73
2019-01-17T08:52:48.381Z,5.60
2019-01-17T08:55:16.970Z,5.77
2019-01-17T08:57:45.500Z,5.67
2019-01-17T09:00:22.227Z,6.33
2019-01-17T09:02:53.922Z,5.90
2019-01-17T09:05:22.388Z,6.00
2019-01-17T09:07:51.140Z,5.87
2019-01-17T09:10:26.049Z,6.17
2019-01-17T09:12:54.612Z,5.37
2019-01-17T09:15:32.634Z,6.17
2019-01-17T09:18:01.325Z,5.70
2019-01-17T09:20:29.816Z,6.00
2019-01-17T09:22:58.354Z,6.07
2019-01-17T09:25:29.675Z,6.87
2019-01-17T09:27:58.215Z,5.87
2019-01-17T09:30:28.310Z,5.93
2019-01-17T09:32:56.846Z,5.87
2019-01-17T09:35:25.396Z,6.17
2019-01-17T09:37:53.947Z,5.67
2019-01-17T09:40:22.998Z,5.60
2019-01-17T09:42:52.176Z,6.45
2019-01-17T09:45:20.689Z,5.43
2019-01-17T09:47:49.303Z,5.27
2019-01-17T09:50:20.374Z,5.87
2019-01-17T09:52:49.175Z,5.30
2019-01-17T09:55:17.722Z,5.97
2019-01-17T09:57:46.276Z,5.67
2019-01-17T10:00:17.747Z,6.20
2019-01-17T10:02:46.527Z,5.60
2019-01-17T10:05:15.100Z,5.33
2019-01-17T10:07:43.630Z,4.97
2019-01-17T10:10:15.155Z,5.40
2019-01-17T10:12:43.643Z,5.63
2019-01-17T10:15:15.390Z,4.83
2019-01-17T10:17:55.871Z,4.50
2019-01-17T10:20:33.248Z,4.60
2019-01-17T10:23:11.015Z,5.77
2019-01-17T10:25:51.360Z,4.70
2019-01-17T10:28:31.734Z,4.63
2019-01-17T10:31:19.667Z,4.73
2019-01-17T10:33:54.174Z,4.03
2019-01-17T10:36:46.960Z,4.80
2019-01-17T10:39:35.023Z,5.17
2019-01-17T10:42:18.210Z,4.37
2019-01-17T10:45:01.388Z,4.50
2019-01-17T10:47:41.943Z,4.27
2019-01-17T10:50:13.544Z,4.00
2019-01-17T10:52:48.049Z,4.53
2019-01-17T10:55:45.294Z,3.97
2019-01-17T10:58:28.763Z,3.93
2019-01-17T11:01:12.347Z,3.93
2019-01-17T11:03:50.350Z,3.80
2019-01-17T11:06:24.579Z,3.50
2019-01-17T11:09:29.637Z,3.40
2019-01-17T11:12:07.187Z,4.40
2019-01-17T11:14:50.568Z,3.50
2019-01-17T11:17:31.139Z,3.70
2019-01-17T11:20:17.634Z,3.60
2019-01-17T11:22:51.831Z,4.53
2019-01-17T11:25:47.332Z,4.27
2019-01-17T11:28:37.150Z,3.30
2019-01-17T11:31:31.228Z,3.80
2019-01-17T11:34:14.900Z,3.77
2019-01-17T11:36:46.518Z,3.93
2019-01-17T11:39:34.718Z,3.80
2019-01-17T11:42:12.182Z,3.50
2019-01-17T11:44:55.693Z,4.00
2019-01-17T11:47:49.968Z,3.80
2019-01-17T11:50:30.184Z,4.10
2019-01-17T11:53:25.824Z,3.37
2019-01-17T11:56:17.966Z,3.73
2019-01-17T11:59:13.831Z,3.50
2019-01-17T12:02:00.475Z,3.27
2019-01-17T12:04:30.703Z,2.63
2019-01-17T12:07:01.841Z,2.67
2019-01-17T12:09:30.406Z,2.93
2019-01-17T12:11:59.091Z,2.53
2019-01-17T12:14:27.622Z,2.20
2019-01-17T12:16:56.186Z,2.00
2019-01-17T12:19:24.666Z,2.30
2019-01-17T12:21:53.211Z,2.10
2019-01-17T12:24:21.794Z,2.30
2019-01-17T12:26:50.332Z,2.40
2019-01-17T12:29:18.874Z,3.03
2019-01-17T12:31:47.400Z,3.27
2019-01-17T12:34:15.918Z,3.23
2019-01-17T12:36:44.396Z,2.27
2019-01-17T12:39:14.411Z,2.90
2019-01-17T12:41:42.938Z,2.30
2019-01-17T12:44:14.178Z,2.33
2019-01-17T12:46:42.719Z,2.47
2019-01-17T12:49:11.211Z,3.07
2019-01-17T12:51:39.804Z,2.30
2019-01-17T12:54:08.324Z,2.50
2019-01-17T12:56:36.808Z,1.90
2019-01-17T12:59:05.388Z,2.03
2019-01-17T13:01:33.909Z,1.60
2019-01-17T13:04:02.453Z,1.73
2019-01-17T13:06:31.492Z,1.43
2019-01-17T13:09:02.022Z,1.70
2019-01-17T13:11:30.268Z,1.90
2019-01-17T13:13:58.822Z,1.67
2019-01-17T13:16:27.395Z,1.53
2019-01-17T13:18:55.927Z,1.80
2019-01-17T13:21:24.395Z,1.97
2019-01-17T13:23:52.854Z,1.63
2019-01-17T13:26:24.100Z,2.00
2019-01-17T13:28:52.589Z,2.00
2019-01-17T13:31:21.154Z,1.50
2019-01-17T13:33:49.678Z,2.47
2019-01-17T13:36:18.182Z,1.80
2019-01-17T13:38:47.435Z,1.90
2019-01-17T13:41:16.072Z,1.97
2019-01-17T13:43:44.634Z,2.07
2019-01-17T13:46:13.206Z,1.90
2019-01-17T13:48:41.733Z,1.60
2019-01-17T13:51:13.026Z,1.90
2019-01-17T13:53:43.220Z,2.00
2019-01-17T13:56:11.795Z,2.43
2019-01-17T13:58:40.342Z,2.00
2019-01-17T14:01:08.904Z,2.00
2019-01-17T14:03:37.460Z,1.80
2019-01-17T14:06:06.103Z,2.27
2019-01-17T14:08:34.635Z,1.97
2019-01-17T14:11:03.390Z,2.07
2019-01-17T14:13:31.904Z,2.17
2019-01-17T14:16:00.454Z,2.83
2019-01-17T14:18:29.030Z,1.97
2019-01-17T14:20:57.581Z,1.67
2019-01-17T14:23:26.140Z,1.70
2019-01-17T14:25:54.644Z,1.43
2019-01-17T14:28:23.140Z,1.50
2019-01-17T14:30:51.770Z,1.70
2019-01-17T14:33:21.119Z,2.00
2019-01-17T14:35:49.672Z,2.33
2019-01-17T14:38:18.147Z,1.83
2019-01-17T14:40:46.607Z,1.50
2019-01-17T14:43:15.078Z,1.80
2019-01-17T14:45:43.559Z,1.63
2019-01-17T14:48:12.098Z,1.63
2019-01-17T14:50:40.582Z,2.07
2019-01-17T14:53:09.137Z,1.60
2019-01-17T14:55:37.694Z,1.87
2019-01-17T14:58:06.596Z,1.97
2019-01-17T15:00:35.131Z,1.50
2019-01-17T15:03:03.669Z,1.10
2019-01-17T15:05:32.129Z,1.57
2019-01-17T15:08:00.708Z,1.47
2019-01-17T15:10:37.906Z,1.83
2019-01-17T15:13:07.298Z,1.63
2019-01-17T15:15:35.860Z,1.70
2019-01-17T15:18:04.636Z,2.07
2019-01-17T15:20:33.178Z,1.73
2019-01-17T15:23:01.646Z,1.10
2019-01-17T15:25:30.120Z,1.43
2019-01-17T15:27:58.695Z,1.50
2019-01-17T15:30:27.318Z,1.33
2019-01-17T15:32:55.968Z,1.80
2019-01-17T15:35:24.505Z,1.20
2019-01-17T15:37:52.964Z,1.87
2019-01-17T15:40:26.280Z,1.80
2019-01-17T15:42:54.856Z,2.17
2019-01-17T15:45:23.422Z,1.90
2019-01-17T15:47:51.957Z,1.10
2019-01-17T15:50:20.877Z,1.57
2019-01-17T15:52:49.415Z,1.87
2019-01-17T15:55:18.527Z,1.80
2019-01-17T15:57:47.071Z,1.33
2019-01-17T16:00:27.113Z,1.87
2019-01-17T16:02:55.695Z,1.97
2019-01-17T16:05:24.232Z,2.93
2019-01-17T16:07:52.807Z,1.80
2019-01-17T16:10:24.512Z,1.90
2019-01-17T16:12:53.095Z,1.50
2019-01-17T16:15:24.297Z,1.40
2019-01-17T16:17:52.940Z,1.60
2019-01-17T16:20:21.477Z,1.37
2019-01-17T16:22:50.061Z,1.43
2019-01-17T16:25:18.610Z,1.27
2019-01-17T16:27:52.941Z,1.97
2019-01-17T16:30:23.317Z,1.83
2019-01-17T16:32:51.862Z,1.87
2019-01-17T16:35:20.405Z,2.77
2019-01-17T16:37:48.892Z,2.67
2019-01-17T16:40:17.689Z,3.03
2019-01-17T16:42:46.270Z,1.93
2019-01-17T16:45:17.619Z,1.70
2019-01-17T16:47:46.165Z,1.93
2019-01-17T16:50:19.648Z,2.43
2019-01-17T16:52:48.215Z,1.90
2019-01-17T16:55:16.837Z,1.70
2019-01-17T16:57:49.291Z,1.73
2019-01-17T17:00:30.399Z,1.27
2019-01-17T17:02:58.951Z,1.07
2019-01-17T17:05:27.501Z,1.50
2019-01-17T17:07:56.078Z,1.23
2019-01-17T17:10:24.623Z,1.23
2019-01-17T17:12:53.204Z,1.10
2019-01-17T17:15:21.759Z,1.10
2019-01-17T17:17:50.319Z,1.00
2019-01-17T17:20:21.005Z,0.93
2019-01-17T17:22:50.172Z,0.60
2019-01-17T17:25:18.787Z,0.67
2019-01-17T17:27:47.361Z,0.70
2019-01-17T17:30:21.131Z,1.30
2019-01-17T17:32:49.705Z,0.93
2019-01-17T17:35:18.276Z,1.93
2019-01-17T17:37:46.846Z,3.13
2019-01-17T17:40:21.016Z,1.93
2019-01-17T17:42:49.644Z,3.03
2019-01-17T17:45:18.218Z,3.73
2019-01-17T17:47:46.935Z,3.37
2019-01-17T17:50:17.790Z,2.63
2019-01-17T17:52:46.312Z,2.73
2019-01-17T17:55:16.417Z,1.97
2019-01-17T17:57:45.284Z,2.47
2019-01-17T18:00:17.993Z,4.00
2019-01-17T18:02:47.283Z,3.97
2019-01-17T18:05:15.845Z,1.10
2019-01-17T18:07:44.418Z,6.20
2019-01-17T18:10:15.491Z,7.10
2019-01-17T18:12:43.969Z,5.57
2019-01-17T18:15:15.070Z,3.40
2019-01-17T18:17:43.710Z,2.20
2019-01-17T18:20:15.396Z,1.67
2019-01-17T18:22:43.950Z,2.60
2019-01-17T18:25:13.263Z,4.87
2019-01-17T18:27:41.992Z,4.30
2019-01-17T18:30:18.847Z,2.83
2019-01-17T18:32:47.419Z,2.73
2019-01-17T18:35:17.000Z,4.17
2019-01-17T18:37:45.894Z,3.63
2019-01-17T18:40:17.074Z,2.33
2019-01-17T18:42:45.697Z,2.13
2019-01-17T18:45:19.939Z,2.03
2019-01-17T18:47:48.770Z,2.10
2019-01-17T18:50:20.352Z,2.10
2019-01-17T18:52:48.910Z,1.90
2019-01-17T18:55:17.755Z,2.30
2019-01-17T18:57:46.367Z,1.60
2019-01-17T19:00:22.014Z,2.03
2019-01-17T19:02:53.393Z,2.37
2019-01-17T19:05:29.965Z,3.00
2019-01-17T19:07:59.573Z,2.60
2019-01-17T19:10:29.580Z,2.30
2019-01-17T19:12:58.136Z,2.07
2019-01-17T19:15:29.391Z,1.80
2019-01-17T19:17:58.033Z,2.20
2019-01-17T19:20:26.597Z,1.97
2019-01-17T19:22:56.699Z,2.27
2019-01-17T19:25:25.274Z,2.27
2019-01-17T19:27:54.768Z,2.10
2019-01-17T19:30:27.026Z,2.80
2019-01-17T19:32:57.031Z,2.70
2019-01-17T19:35:26.284Z,2.33
2019-01-17T19:37:57.778Z,2.77
2019-01-17T19:40:32.401Z,2.57
2019-01-17T19:43:03.762Z,2.63
2019-01-17T19:45:33.569Z,3.60
2019-01-17T19:48:02.106Z,1.90
2019-01-17T19:50:32.952Z,2.10
2019-01-17T19:53:01.511Z,2.23
2019-01-17T19:55:30.510Z,2.67
2019-01-17T19:57:59.249Z,2.63
2019-01-17T20:00:29.115Z,2.67
2019-01-17T20:03:13.019Z,2.63
2019-01-17T20:05:43.466Z,3.47
2019-01-17T20:08:12.908Z,3.20
2019-01-17T20:10:44.138Z,3.63
2019-01-17T20:13:14.061Z,4.90
2019-01-17T20:15:43.580Z,3.23
2019-01-17T20:18:13.011Z,3.13
2019-01-17T20:20:42.487Z,2.63
2019-01-17T20:23:15.089Z,2.52
2019-01-17T20:25:44.986Z,2.57
2019-01-17T20:28:15.375Z,2.43
2019-01-17T20:30:45.412Z,2.80
2019-01-17T20:33:14.914Z,3.07
2019-01-17T20:35:44.728Z,5.07
2019-01-17T20:38:14.151Z,4.30
2019-01-17T20:40:43.597Z,4.67
2019-01-17T20:43:13.299Z,4.90
2019-01-17T20:45:44.182Z,5.03
2019-01-17T20:48:14.591Z,4.70
2019-01-17T20:50:44.608Z,4.87
2019-01-17T20:53:17.560Z,3.30
2019-01-17T20:55:47.047Z,3.80
2019-01-17T20:58:18.127Z,3.03
2019-01-17T21:00:55.946Z,2.83
2019-01-17T21:03:26.725Z,2.70
2019-01-17T21:05:56.184Z,3.53
2019-01-17T21:08:26.986Z,3.30
2019-01-17T21:10:57.522Z,2.80
2019-01-17T21:13:27.984Z,2.77
2019-01-17T21:16:01.721Z,3.00
2019-01-17T21:18:31.193Z,3.70
2019-01-17T21:21:04.347Z,3.23
2019-01-17T21:23:33.778Z,3.70
2019-01-17T21:26:04.652Z,3.37
2019-01-17T21:28:34.091Z,3.17
2019-01-17T21:31:03.533Z,3.00
2019-01-17T21:33:33.535Z,3.73
2019-01-17T21:36:02.979Z,3.87
2019-01-17T21:38:32.427Z,4.47
2019-01-17T21:41:01.859Z,3.73
2019-01-17T21:43:31.317Z,3.17
2019-01-17T21:46:00.745Z,3.27
2019-01-17T21:48:30.203Z,3.10
2019-01-17T21:50:59.625Z,3.47
2019-01-17T21:53:29.075Z,3.05
2019-01-17T21:55:58.514Z,2.80
2019-01-17T21:58:28.931Z,2.57
2019-01-17T22:00:58.923Z,3.10
2019-01-17T22:03:28.366Z,3.40
2019-01-17T22:05:57.729Z,3.00
2019-01-17T22:08:27.179Z,2.60
2019-01-17T22:10:56.628Z,3.27
2019-01-17T22:13:26.071Z,3.10
2019-01-17T22:15:55.495Z,2.80
2019-01-17T22:18:24.883Z,2.80
2019-01-17T22:20:54.302Z,2.70
2019-01-17T22:23:23.725Z,2.13
2019-01-17T22:25:54.153Z,2.70
2019-01-17T22:28:23.584Z,2.00
2019-01-17T22:30:53.014Z,2.30
2019-01-17T22:33:22.440Z,2.20
2019-01-17T22:35:51.859Z,2.27
2019-01-17T22:38:21.218Z,1.90
2019-01-17T22:40:50.947Z,1.90
2019-01-17T22:43:20.350Z,1.80
2019-01-17T22:45:49.725Z,1.77
2019-01-17T22:48:19.131Z,1.90
2019-01-17T22:50:48.548Z,1.80
2019-01-17T22:53:17.972Z,1.60
2019-01-17T22:55:47.406Z,1.63
2019-01-17T22:58:16.992Z,1.57
2019-01-17T23:00:50.808Z,1.57
2019-01-17T23:03:34.978Z,1.90
2019-01-17T23:06:04.597Z,1.80
2019-01-17T23:08:33.998Z,1.60
2019-01-17T23:11:03.351Z,1.60
2019-01-17T23:13:32.718Z,1.60
2019-01-17T23:16:02.415Z,1.50
2019-01-17T23:18:31.847Z,1.73
2019-01-17T23:21:01.297Z,1.90
2019-01-17T23:23:30.724Z,1.80
2019-01-17T23:26:00.157Z,1.90
2019-01-17T23:28:29.515Z,1.77
2019-01-17T23:30:58.938Z,1.57
2019-01-17T23:33:28.321Z,2.03
2019-01-17T23:35:57.776Z,1.77
2019-01-17T23:38:27.250Z,1.90
2019-01-17T23:40:56.713Z,1.70
2019-01-17T23:43:26.148Z,2.10
2019-01-17T23:45:55.506Z,1.50
2019-01-17T23:48:24.926Z,1.83
2019-01-17T23:50:54.303Z,1.80
2019-01-17T23:53:23.757Z,1.70
2019-01-17T23:55:53.195Z,1.60
2019-01-17T23:58:22.621Z,1.90
